KBIX

Keesler AFB Airport

Biloxi, Mississippi, USA
TAF KBIX 171800Z 1718/1824 VRB06KT 9999 FEW200 QNH3017INS TX19/1721Z TN08/1813Z
Issued Valid From Valid To
Nov-17 @ 18:00 UTC
(4 hours ago)
Nov-17 @ 18:00 UTC
(4 hours ago)
Nov-19 @ 00:00 UTC
(-1 days ago)
Nov-17 @ 18:00 to Nov-19 @ 00:00
TAF KBIX 171800Z 1718/1824 VRB06KT 9999 FEW200 QNH3017INS TX19/1721Z TN08/1813Z
Wind Visibility Clouds Readings
Variable at 6 knots Greater than 6 miles
  • Few at 20,000' AGL
Altimeter 30.18" Hg
Pressure 1022 hPa
TAF KBIX 171800Z 1718/1824 VRB06KT 9999 FEW200 QNH3017INS TX19/1721Z TN08/1813Z
Issued Nov-17 @ 18:00 UTC
(4 hours ago)
Valid From Nov-17 @ 18:00 UTC
(4 hours ago)
Valid To Nov-19 @ 00:00 UTC
(-1 days ago)
Nov-17 @ 18:00 - Nov-19 @ 00:00
Wind Visibility
Variable at 6 knots Greater than 6 miles
Clouds
  • Few at 20,000' AGL